sensor_id;sensor_type;location;lat;lon;timestamp;temperature;humidity
24384;DHT22;12504;52.870;8.798;2022-12-07T00:01:11;4.30;99.90
24384;DHT22;12504;52.870;8.798;2022-12-07T00:03:38;4.30;99.90
24384;DHT22;12504;52.870;8.798;2022-12-07T00:06:05;4.30;99.90
24384;DHT22;12504;52.870;8.798;2022-12-07T00:08:32;4.30;99.90
24384;DHT22;12504;52.870;8.798;2022-12-07T00:11:03;4.30;99.90
24384;DHT22;12504;52.870;8.798;2022-12-07T00:13:30;4.20;99.90
24384;DHT22;12504;52.870;8.798;2022-12-07T00:16:04;4.10;99.90
24384;DHT22;12504;52.870;8.798;2022-12-07T00:18:30;4.00;99.90
24384;DHT22;12504;52.870;8.798;2022-12-07T00:21:17;3.90;99.90
24384;DHT22;12504;52.870;8.798;2022-12-07T00:23:45;3.90;99.90
24384;DHT22;12504;52.870;8.798;2022-12-07T00:28:38;3.90;99.90
24384;DHT22;12504;52.870;8.798;2022-12-07T00:31:06;3.80;99.90
24384;DHT22;12504;52.870;8.798;2022-12-07T00:33:33;3.80;99.90
24384;DHT22;12504;52.870;8.798;2022-12-07T00:36:00;3.80;99.90
24384;DHT22;12504;52.870;8.798;2022-12-07T00:38:29;3.70;99.90
24384;DHT22;12504;52.870;8.798;2022-12-07T00:40:57;3.60;99.90
24384;DHT22;12504;52.870;8.798;2022-12-07T00:43:22;3.60;99.90
24384;DHT22;12504;52.870;8.798;2022-12-07T00:45:48;3.50;99.90
24384;DHT22;12504;52.870;8.798;2022-12-07T00:48:14;3.50;99.90
24384;DHT22;12504;52.870;8.798;2022-12-07T00:50:39;3.40;99.90
24384;DHT22;12504;52.870;8.798;2022-12-07T00:53:05;3.40;99.90
24384;DHT22;12504;52.870;8.798;2022-12-07T00:55:34;3.40;99.90
24384;DHT22;12504;52.870;8.798;2022-12-07T00:58:00;3.40;99.90
24384;DHT22;12504;52.870;8.798;2022-12-07T01:00:26;3.40;99.90
24384;DHT22;12504;52.870;8.798;2022-12-07T01:02:52;3.40;99.90
24384;DHT22;12504;52.870;8.798;2022-12-07T01:05:17;3.40;99.90
24384;DHT22;12504;52.870;8.798;2022-12-07T01:07:43;3.40;99.90
24384;DHT22;12504;52.870;8.798;2022-12-07T01:10:09;3.40;99.90
24384;DHT22;12504;52.870;8.798;2022-12-07T01:12:35;3.40;99.90
24384;DHT22;12504;52.870;8.798;2022-12-07T01:15:01;3.40;99.90
24384;DHT22;12504;52.870;8.798;2022-12-07T01:17:28;3.50;99.90
24384;DHT22;12504;52.870;8.798;2022-12-07T01:19:54;3.60;99.90
24384;DHT22;12504;52.870;8.798;2022-12-07T01:22:19;3.60;99.90
24384;DHT22;12504;52.870;8.798;2022-12-07T01:24:46;3.60;99.90
24384;DHT22;12504;52.870;8.798;2022-12-07T01:27:13;3.60;99.90
24384;DHT22;12504;52.870;8.798;2022-12-07T01:29:39;3.50;99.90
24384;DHT22;12504;52.870;8.798;2022-12-07T01:32:05;3.50;99.90
24384;DHT22;12504;52.870;8.798;2022-12-07T01:34:31;3.40;99.90
24384;DHT22;12504;52.870;8.798;2022-12-07T01:36:57;3.40;99.90
24384;DHT22;12504;52.870;8.798;2022-12-07T01:39:23;3.40;99.90
24384;DHT22;12504;52.870;8.798;2022-12-07T01:41:49;3.40;99.90
24384;DHT22;12504;52.870;8.798;2022-12-07T01:46:50;3.40;99.90
24384;DHT22;12504;52.870;8.798;2022-12-07T01:54:40;3.40;99.90
24384;DHT22;12504;52.870;8.798;2022-12-07T01:57:08;3.40;99.90
24384;DHT22;12504;52.870;8.798;2022-12-07T01:59:35;3.30;99.90
24384;DHT22;12504;52.870;8.798;2022-12-07T02:02:02;3.40;99.90
24384;DHT22;12504;52.870;8.798;2022-12-07T02:04:29;3.30;99.90
24384;DHT22;12504;52.870;8.798;2022-12-07T02:06:55;3.30;99.90
24384;DHT22;12504;52.870;8.798;2022-12-07T02:09:22;3.20;99.90
24384;DHT22;12504;52.870;8.798;2022-12-07T02:11:48;3.10;99.90
24384;DHT22;12504;52.870;8.798;2022-12-07T02:14:14;3.10;99.90
24384;DHT22;12504;52.870;8.798;2022-12-07T02:16:47;3.10;99.90
24384;DHT22;12504;52.870;8.798;2022-12-07T02:19:39;3.20;99.90
24384;DHT22;12504;52.870;8.798;2022-12-07T02:28:01;3.10;99.90
24384;DHT22;12504;52.870;8.798;2022-12-07T02:30:32;3.10;99.90
24384;DHT22;12504;52.870;8.798;2022-12-07T02:33:07;3.00;99.90
24384;DHT22;12504;52.870;8.798;2022-12-07T02:40:36;3.10;99.90
24384;DHT22;12504;52.870;8.798;2022-12-07T02:43:33;3.10;99.90
24384;DHT22;12504;52.870;8.798;2022-12-07T02:46:16;3.10;99.90
24384;DHT22;12504;52.870;8.798;2022-12-07T02:48:43;3.10;99.90
24384;DHT22;12504;52.870;8.798;2022-12-07T02:51:09;3.00;99.90
24384;DHT22;12504;52.870;8.798;2022-12-07T02:53:40;3.00;99.90
24384;DHT22;12504;52.870;8.798;2022-12-07T02:56:21;3.00;99.90
24384;DHT22;12504;52.870;8.798;2022-12-07T02:58:59;3.00;99.90
24384;DHT22;12504;52.870;8.798;2022-12-07T03:07:13;3.10;99.90
24384;DHT22;12504;52.870;8.798;2022-12-07T03:09:53;3.10;99.90
24384;DHT22;12504;52.870;8.798;2022-12-07T03:12:29;3.20;99.90
24384;DHT22;12504;52.870;8.798;2022-12-07T03:15:03;3.20;99.90
24384;DHT22;12504;52.870;8.798;2022-12-07T03:17:35;3.30;99.90
24384;DHT22;12504;52.870;8.798;2022-12-07T03:20:05;3.30;99.90
24384;DHT22;12504;52.870;8.798;2022-12-07T03:22:34;3.20;99.90
24384;DHT22;12504;52.870;8.798;2022-12-07T03:25:04;3.20;99.90
24384;DHT22;12504;52.870;8.798;2022-12-07T03:27:41;3.20;99.90
24384;DHT22;12504;52.870;8.798;2022-12-07T03:30:21;3.20;99.90
24384;DHT22;12504;52.870;8.798;2022-12-07T03:33:08;3.20;99.90
24384;DHT22;12504;52.870;8.798;2022-12-07T03:35:42;3.10;99.90
24384;DHT22;12504;52.870;8.798;2022-12-07T03:38:40;3.20;99.90
24384;DHT22;12504;52.870;8.798;2022-12-07T03:41:18;3.20;99.90
24384;DHT22;12504;52.870;8.798;2022-12-07T03:43:46;3.10;99.90
24384;DHT22;12504;52.870;8.798;2022-12-07T03:46:32;3.10;99.90
24384;DHT22;12504;52.870;8.798;2022-12-07T03:52:24;3.00;99.90
24384;DHT22;12504;52.870;8.798;2022-12-07T03:57:17;2.90;99.90
24384;DHT22;12504;52.870;8.798;2022-12-07T03:59:44;2.90;99.90
24384;DHT22;12504;52.870;8.798;2022-12-07T04:02:13;2.80;99.90
24384;DHT22;12504;52.870;8.798;2022-12-07T04:04:39;2.80;99.90
24384;DHT22;12504;52.870;8.798;2022-12-07T04:07:05;2.90;99.90
24384;DHT22;12504;52.870;8.798;2022-12-07T04:09:30;2.90;99.90
24384;DHT22;12504;52.870;8.798;2022-12-07T04:11:56;2.90;99.90
24384;DHT22;12504;52.870;8.798;2022-12-07T04:14:22;2.90;99.90
24384;DHT22;12504;52.870;8.798;2022-12-07T04:16:53;2.80;99.90
24384;DHT22;12504;52.870;8.798;2022-12-07T04:19:24;2.70;99.90
24384;DHT22;12504;52.870;8.798;2022-12-07T04:21:50;2.70;99.90
24384;DHT22;12504;52.870;8.798;2022-12-07T04:24:16;2.70;99.90
24384;DHT22;12504;52.870;8.798;2022-12-07T04:26:43;2.70;99.90
24384;DHT22;12504;52.870;8.798;2022-12-07T04:29:10;2.70;99.90
24384;DHT22;12504;52.870;8.798;2022-12-07T04:31:36;2.60;99.90
24384;DHT22;12504;52.870;8.798;2022-12-07T04:34:03;2.60;99.90
24384;DHT22;12504;52.870;8.798;2022-12-07T04:36:29;2.60;99.90
24384;DHT22;12504;52.870;8.798;2022-12-07T04:38:55;2.60;99.90
24384;DHT22;12504;52.870;8.798;2022-12-07T04:41:22;2.60;99.90
24384;DHT22;12504;52.870;8.798;2022-12-07T04:44:03;2.70;99.90
24384;DHT22;12504;52.870;8.798;2022-12-07T04:46:31;2.60;99.90
24384;DHT22;12504;52.870;8.798;2022-12-07T04:48:57;2.60;99.90
24384;DHT22;12504;52.870;8.798;2022-12-07T04:51:25;2.50;99.90
24384;DHT22;12504;52.870;8.798;2022-12-07T04:53:52;2.40;99.90
24384;DHT22;12504;52.870;8.798;2022-12-07T04:56:18;2.40;99.90
24384;DHT22;12504;52.870;8.798;2022-12-07T04:58:45;2.30;99.90
24384;DHT22;12504;52.870;8.798;2022-12-07T05:01:12;2.20;99.90
24384;DHT22;12504;52.870;8.798;2022-12-07T05:03:39;2.20;99.90
24384;DHT22;12504;52.870;8.798;2022-12-07T05:06:05;2.20;99.90
24384;DHT22;12504;52.870;8.798;2022-12-07T05:08:32;2.20;99.90
24384;DHT22;12504;52.870;8.798;2022-12-07T05:10:59;2.20;99.90
24384;DHT22;12504;52.870;8.798;2022-12-07T05:13:25;2.20;99.90
24384;DHT22;12504;52.870;8.798;2022-12-07T05:15:51;2.30;99.90
24384;DHT22;12504;52.870;8.798;2022-12-07T05:18:17;2.30;99.90
24384;DHT22;12504;52.870;8.798;2022-12-07T05:20:43;2.30;99.90
24384;DHT22;12504;52.870;8.798;2022-12-07T05:23:09;2.40;99.90
24384;DHT22;12504;52.870;8.798;2022-12-07T05:25:35;2.40;99.90
24384;DHT22;12504;52.870;8.798;2022-12-07T05:28:01;2.40;99.90
24384;DHT22;12504;52.870;8.798;2022-12-07T05:30:27;2.40;99.90
24384;DHT22;12504;52.870;8.798;2022-12-07T05:32:53;2.40;99.90
24384;DHT22;12504;52.870;8.798;2022-12-07T05:35:19;2.50;99.90
24384;DHT22;12504;52.870;8.798;2022-12-07T05:37:45;2.50;99.90
24384;DHT22;12504;52.870;8.798;2022-12-07T05:40:12;2.50;99.90
24384;DHT22;12504;52.870;8.798;2022-12-07T05:42:38;2.60;99.90
24384;DHT22;12504;52.870;8.798;2022-12-07T05:45:05;2.50;99.90
24384;DHT22;12504;52.870;8.798;2022-12-07T05:47:31;2.50;99.90
24384;DHT22;12504;52.870;8.798;2022-12-07T05:49:57;2.40;99.90
24384;DHT22;12504;52.870;8.798;2022-12-07T05:52:22;2.30;99.90
24384;DHT22;12504;52.870;8.798;2022-12-07T05:54:48;2.30;99.90
24384;DHT22;12504;52.870;8.798;2022-12-07T05:57:14;2.30;99.90
24384;DHT22;12504;52.870;8.798;2022-12-07T05:59:40;2.30;99.90
24384;DHT22;12504;52.870;8.798;2022-12-07T06:02:09;2.30;99.90
24384;DHT22;12504;52.870;8.798;2022-12-07T06:04:38;2.20;99.90
24384;DHT22;12504;52.870;8.798;2022-12-07T06:07:05;2.30;99.90
24384;DHT22;12504;52.870;8.798;2022-12-07T06:09:30;2.20;99.90
24384;DHT22;12504;52.870;8.798;2022-12-07T06:11:57;2.20;99.90
24384;DHT22;12504;52.870;8.798;2022-12-07T06:14:42;2.30;99.90
24384;DHT22;12504;52.870;8.798;2022-12-07T06:17:08;2.20;99.90
24384;DHT22;12504;52.870;8.798;2022-12-07T06:19:33;2.20;99.90
24384;DHT22;12504;52.870;8.798;2022-12-07T06:21:59;2.20;99.90
24384;DHT22;12504;52.870;8.798;2022-12-07T06:24:25;2.30;99.90
24384;DHT22;12504;52.870;8.798;2022-12-07T06:26:51;2.30;99.90
24384;DHT22;12504;52.870;8.798;2022-12-07T06:29:18;2.40;99.90
24384;DHT22;12504;52.870;8.798;2022-12-07T06:31:43;2.40;99.90
24384;DHT22;12504;52.870;8.798;2022-12-07T06:34:12;2.50;99.90
24384;DHT22;12504;52.870;8.798;2022-12-07T06:36:38;2.50;99.90
24384;DHT22;12504;52.870;8.798;2022-12-07T06:39:05;2.60;99.90
24384;DHT22;12504;52.870;8.798;2022-12-07T06:41:31;2.60;99.90
24384;DHT22;12504;52.870;8.798;2022-12-07T06:43:57;2.60;99.90
24384;DHT22;12504;52.870;8.798;2022-12-07T06:46:23;2.60;99.90
24384;DHT22;12504;52.870;8.798;2022-12-07T06:48:49;2.70;99.90
24384;DHT22;12504;52.870;8.798;2022-12-07T06:51:14;2.70;99.90
24384;DHT22;12504;52.870;8.798;2022-12-07T06:53:40;2.70;99.90
24384;DHT22;12504;52.870;8.798;2022-12-07T06:56:06;2.70;99.90
24384;DHT22;12504;52.870;8.798;2022-12-07T06:58:32;2.70;99.90
24384;DHT22;12504;52.870;8.798;2022-12-07T07:00:58;2.70;99.90
24384;DHT22;12504;52.870;8.798;2022-12-07T07:03:24;2.70;99.90
24384;DHT22;12504;52.870;8.798;2022-12-07T07:05:49;2.60;99.90
24384;DHT22;12504;52.870;8.798;2022-12-07T07:08:15;2.60;99.90
24384;DHT22;12504;52.870;8.798;2022-12-07T07:10:41;2.60;99.90
24384;DHT22;12504;52.870;8.798;2022-12-07T07:13:07;2.60;99.90
24384;DHT22;12504;52.870;8.798;2022-12-07T07:15:33;2.70;99.90
24384;DHT22;12504;52.870;8.798;2022-12-07T07:17:59;2.70;99.90
24384;DHT22;12504;52.870;8.798;2022-12-07T07:20:26;2.70;99.90
24384;DHT22;12504;52.870;8.798;2022-12-07T07:22:54;2.70;99.90
24384;DHT22;12504;52.870;8.798;2022-12-07T07:25:20;2.80;99.90
24384;DHT22;12504;52.870;8.798;2022-12-07T07:27:45;2.80;99.90
24384;DHT22;12504;52.870;8.798;2022-12-07T07:30:11;2.80;99.90
24384;DHT22;12504;52.870;8.798;2022-12-07T07:32:37;2.80;99.90
24384;DHT22;12504;52.870;8.798;2022-12-07T07:35:03;2.80;99.90
24384;DHT22;12504;52.870;8.798;2022-12-07T07:37:29;2.70;99.90
24384;DHT22;12504;52.870;8.798;2022-12-07T07:39:55;2.80;99.90
24384;DHT22;12504;52.870;8.798;2022-12-07T07:42:20;2.80;99.90
24384;DHT22;12504;52.870;8.798;2022-12-07T07:44:46;2.80;99.90
24384;DHT22;12504;52.870;8.798;2022-12-07T07:47:12;2.80;99.90
24384;DHT22;12504;52.870;8.798;2022-12-07T07:49:38;2.80;99.90
24384;DHT22;12504;52.870;8.798;2022-12-07T07:52:05;2.90;99.90
24384;DHT22;12504;52.870;8.798;2022-12-07T07:54:31;2.90;99.90
24384;DHT22;12504;52.870;8.798;2022-12-07T07:56:57;2.90;99.90
24384;DHT22;12504;52.870;8.798;2022-12-07T07:59:23;2.90;99.90
24384;DHT22;12504;52.870;8.798;2022-12-07T08:01:50;2.90;99.90
24384;DHT22;12504;52.870;8.798;2022-12-07T08:04:16;2.90;99.90
24384;DHT22;12504;52.870;8.798;2022-12-07T08:06:41;2.90;99.90
24384;DHT22;12504;52.870;8.798;2022-12-07T08:09:08;2.90;99.90
24384;DHT22;12504;52.870;8.798;2022-12-07T08:11:34;2.80;99.90
24384;DHT22;12504;52.870;8.798;2022-12-07T08:14:00;2.80;99.90
24384;DHT22;12504;52.870;8.798;2022-12-07T08:16:26;2.70;99.90
24384;DHT22;12504;52.870;8.798;2022-12-07T08:18:52;2.70;99.90
24384;DHT22;12504;52.870;8.798;2022-12-07T08:21:18;2.60;99.90
24384;DHT22;12504;52.870;8.798;2022-12-07T08:23:43;2.60;99.90
24384;DHT22;12504;52.870;8.798;2022-12-07T08:26:14;2.60;99.90
24384;DHT22;12504;52.870;8.798;2022-12-07T08:28:40;2.60;99.90
24384;DHT22;12504;52.870;8.798;2022-12-07T08:31:09;2.60;99.90
24384;DHT22;12504;52.870;8.798;2022-12-07T08:33:36;2.60;99.90
24384;DHT22;12504;52.870;8.798;2022-12-07T08:36:03;2.60;99.90
24384;DHT22;12504;52.870;8.798;2022-12-07T08:38:29;2.70;99.90
24384;DHT22;12504;52.870;8.798;2022-12-07T08:40:56;2.80;99.90
24384;DHT22;12504;52.870;8.798;2022-12-07T08:43:22;3.00;99.90
24384;DHT22;12504;52.870;8.798;2022-12-07T08:45:56;3.10;99.90
24384;DHT22;12504;52.870;8.798;2022-12-07T08:48:26;3.20;99.90
24384;DHT22;12504;52.870;8.798;2022-12-07T08:50:52;3.30;99.90
24384;DHT22;12504;52.870;8.798;2022-12-07T08:53:17;3.40;99.90
24384;DHT22;12504;52.870;8.798;2022-12-07T08:55:45;3.40;99.90
24384;DHT22;12504;52.870;8.798;2022-12-07T08:58:11;3.40;99.90
24384;DHT22;12504;52.870;8.798;2022-12-07T09:00:37;3.40;99.90
24384;DHT22;12504;52.870;8.798;2022-12-07T09:03:03;3.30;99.90
24384;DHT22;12504;52.870;8.798;2022-12-07T09:05:28;3.30;99.90
24384;DHT22;12504;52.870;8.798;2022-12-07T09:07:57;3.30;99.90
24384;DHT22;12504;52.870;8.798;2022-12-07T09:10:24;3.30;99.90
24384;DHT22;12504;52.870;8.798;2022-12-07T09:12:50;3.30;99.90
24384;DHT22;12504;52.870;8.798;2022-12-07T09:15:15;3.30;99.90
24384;DHT22;12504;52.870;8.798;2022-12-07T09:17:41;3.20;99.90
24384;DHT22;12504;52.870;8.798;2022-12-07T09:20:07;3.30;99.90
24384;DHT22;12504;52.870;8.798;2022-12-07T09:22:33;3.30;99.90
24384;DHT22;12504;52.870;8.798;2022-12-07T09:24:59;3.30;99.90
24384;DHT22;12504;52.870;8.798;2022-12-07T09:27:26;3.40;99.90
24384;DHT22;12504;52.870;8.798;2022-12-07T09:29:52;3.40;99.90
24384;DHT22;12504;52.870;8.798;2022-12-07T09:32:17;3.30;99.90
24384;DHT22;12504;52.870;8.798;2022-12-07T09:34:43;3.30;99.90
24384;DHT22;12504;52.870;8.798;2022-12-07T09:37:09;3.20;99.90
24384;DHT22;12504;52.870;8.798;2022-12-07T09:39:38;3.20;99.90
24384;DHT22;12504;52.870;8.798;2022-12-07T09:42:04;3.10;99.90
24384;DHT22;12504;52.870;8.798;2022-12-07T09:44:31;3.10;99.90
24384;DHT22;12504;52.870;8.798;2022-12-07T09:46:58;3.10;99.90
24384;DHT22;12504;52.870;8.798;2022-12-07T09:49:25;3.10;99.90
24384;DHT22;12504;52.870;8.798;2022-12-07T09:54:44;3.10;99.90
24384;DHT22;12504;52.870;8.798;2022-12-07T09:57:12;3.10;99.90
24384;DHT22;12504;52.870;8.798;2022-12-07T09:59:38;3.20;99.90
24384;DHT22;12504;52.870;8.798;2022-12-07T10:02:35;3.20;99.90
24384;DHT22;12504;52.870;8.798;2022-12-07T10:05:01;3.30;99.90
24384;DHT22;12504;52.870;8.798;2022-12-07T10:07:27;3.40;99.90
24384;DHT22;12504;52.870;8.798;2022-12-07T10:09:52;3.60;99.90
24384;DHT22;12504;52.870;8.798;2022-12-07T10:12:18;3.60;99.90
24384;DHT22;12504;52.870;8.798;2022-12-07T10:15:00;3.70;99.90
24384;DHT22;12504;52.870;8.798;2022-12-07T10:20:17;3.70;99.90
24384;DHT22;12504;52.870;8.798;2022-12-07T10:23:03;3.60;99.90
24384;DHT22;12504;52.870;8.798;2022-12-07T10:25:35;3.70;99.90
24384;DHT22;12504;52.870;8.798;2022-12-07T10:30:47;3.70;99.90
24384;DHT22;12504;52.870;8.798;2022-12-07T10:33:35;3.70;99.90
24384;DHT22;12504;52.870;8.798;2022-12-07T10:36:20;3.80;99.90
24384;DHT22;12504;52.870;8.798;2022-12-07T10:38:49;3.90;99.90
24384;DHT22;12504;52.870;8.798;2022-12-07T10:41:15;4.00;99.90
24384;DHT22;12504;52.870;8.798;2022-12-07T10:43:50;4.00;99.90
24384;DHT22;12504;52.870;8.798;2022-12-07T10:49:03;4.00;99.90
24384;DHT22;12504;52.870;8.798;2022-12-07T10:52:04;4.00;99.90
24384;DHT22;12504;52.870;8.798;2022-12-07T11:00:04;4.00;99.90
24384;DHT22;12504;52.870;8.798;2022-12-07T11:05:56;4.00;99.90
24384;DHT22;12504;52.870;8.798;2022-12-07T11:11:16;4.10;99.90
24384;DHT22;12504;52.870;8.798;2022-12-07T11:16:48;4.20;99.90
24384;DHT22;12504;52.870;8.798;2022-12-07T11:19:28;4.20;99.90
24384;DHT22;12504;52.870;8.798;2022-12-07T11:22:09;4.30;99.90
24384;DHT22;12504;52.870;8.798;2022-12-07T11:24:54;4.30;99.90
24384;DHT22;12504;52.870;8.798;2022-12-07T11:27:39;4.50;99.90
24384;DHT22;12504;52.870;8.798;2022-12-07T11:30:20;4.60;99.90
24384;DHT22;12504;52.870;8.798;2022-12-07T11:32:53;4.60;99.90
24384;DHT22;12504;52.870;8.798;2022-12-07T11:41:22;5.00;99.90
24384;DHT22;12504;52.870;8.798;2022-12-07T11:46:24;5.20;99.90
24384;DHT22;12504;52.870;8.798;2022-12-07T11:51:22;5.30;99.90
24384;DHT22;12504;52.870;8.798;2022-12-07T11:53:53;5.30;99.90
24384;DHT22;12504;52.870;8.798;2022-12-07T11:56:23;5.20;99.90
24384;DHT22;12504;52.870;8.798;2022-12-07T11:58:57;5.30;99.90
24384;DHT22;12504;52.870;8.798;2022-12-07T12:01:46;5.70;99.90
24384;DHT22;12504;52.870;8.798;2022-12-07T12:06:57;5.90;99.90
24384;DHT22;12504;52.870;8.798;2022-12-07T12:09:25;6.10;99.90
24384;DHT22;12504;52.870;8.798;2022-12-07T12:12:17;6.00;99.90
24384;DHT22;12504;52.870;8.798;2022-12-07T12:22:42;5.30;99.90
24384;DHT22;12504;52.870;8.798;2022-12-07T12:25:30;5.20;99.90
24384;DHT22;12504;52.870;8.798;2022-12-07T12:27:59;5.10;99.90
24384;DHT22;12504;52.870;8.798;2022-12-07T12:30:37;5.00;99.90
24384;DHT22;12504;52.870;8.798;2022-12-07T12:33:12;4.90;99.90
24384;DHT22;12504;52.870;8.798;2022-12-07T12:35:39;4.90;99.90
24384;DHT22;12504;52.870;8.798;2022-12-07T12:38:24;4.90;99.90
24384;DHT22;12504;52.870;8.798;2022-12-07T12:40:53;4.80;99.90
24384;DHT22;12504;52.870;8.798;2022-12-07T12:43:51;4.80;99.90
24384;DHT22;12504;52.870;8.798;2022-12-07T12:51:46;4.90;99.90
24384;DHT22;12504;52.870;8.798;2022-12-07T12:54:24;4.90;99.90
24384;DHT22;12504;52.870;8.798;2022-12-07T12:56:53;4.90;99.90
24384;DHT22;12504;52.870;8.798;2022-12-07T13:01:47;5.10;99.90
24384;DHT22;12504;52.870;8.798;2022-12-07T13:04:28;5.10;99.90
24384;DHT22;12504;52.870;8.798;2022-12-07T13:06:56;5.00;99.90
24384;DHT22;12504;52.870;8.798;2022-12-07T13:09:27;4.90;99.90
24384;DHT22;12504;52.870;8.798;2022-12-07T13:12:10;4.90;99.90
24384;DHT22;12504;52.870;8.798;2022-12-07T13:17:03;4.80;99.90
24384;DHT22;12504;52.870;8.798;2022-12-07T13:25:18;4.60;99.90
24384;DHT22;12504;52.870;8.798;2022-12-07T13:27:54;4.50;99.90
24384;DHT22;12504;52.870;8.798;2022-12-07T13:30:22;4.50;99.90
24384;DHT22;12504;52.870;8.798;2022-12-07T13:32:53;4.60;99.90
24384;DHT22;12504;52.870;8.798;2022-12-07T13:35:28;4.50;99.90
24384;DHT22;12504;52.870;8.798;2022-12-07T13:37:54;4.50;99.90
24384;DHT22;12504;52.870;8.798;2022-12-07T13:40:22;4.40;99.90
24384;DHT22;12504;52.870;8.798;2022-12-07T13:43:00;4.40;99.90
24384;DHT22;12504;52.870;8.798;2022-12-07T13:50:58;4.40;99.90
24384;DHT22;12504;52.870;8.798;2022-12-07T13:53:25;4.50;99.90
24384;DHT22;12504;52.870;8.798;2022-12-07T13:55:56;4.50;99.90
24384;DHT22;12504;52.870;8.798;2022-12-07T13:58:22;4.50;99.90
24384;DHT22;12504;52.870;8.798;2022-12-07T14:00:49;4.40;99.90
24384;DHT22;12504;52.870;8.798;2022-12-07T14:05:42;4.40;99.90
24384;DHT22;12504;52.870;8.798;2022-12-07T14:13:31;4.20;99.90
24384;DHT22;12504;52.870;8.798;2022-12-07T14:15:58;3.90;99.90
24384;DHT22;12504;52.870;8.798;2022-12-07T14:18:29;3.70;99.90
24384;DHT22;12504;52.870;8.798;2022-12-07T14:23:40;3.60;99.90
24384;DHT22;12504;52.870;8.798;2022-12-07T14:26:14;3.50;99.90
24384;DHT22;12504;52.870;8.798;2022-12-07T14:28:41;3.50;99.90
24384;DHT22;12504;52.870;8.798;2022-12-07T14:31:15;3.50;99.90
24384;DHT22;12504;52.870;8.798;2022-12-07T14:33:42;3.40;99.90
24384;DHT22;12504;52.870;8.798;2022-12-07T14:36:14;3.40;99.90
24384;DHT22;12504;52.870;8.798;2022-12-07T14:38:40;3.40;99.90
24384;DHT22;12504;52.870;8.798;2022-12-07T14:41:12;3.40;99.90
24384;DHT22;12504;52.870;8.798;2022-12-07T14:43:57;3.40;99.90
24384;DHT22;12504;52.870;8.798;2022-12-07T14:46:23;3.40;99.90
24384;DHT22;12504;52.870;8.798;2022-12-07T14:48:49;3.30;99.90
24384;DHT22;12504;52.870;8.798;2022-12-07T14:51:15;3.30;99.90
24384;DHT22;12504;52.870;8.798;2022-12-07T14:53:47;3.20;99.90
24384;DHT22;12504;52.870;8.798;2022-12-07T14:56:13;3.20;99.90
24384;DHT22;12504;52.870;8.798;2022-12-07T14:58:40;3.30;99.90
24384;DHT22;12504;52.870;8.798;2022-12-07T15:01:05;3.30;99.90
24384;DHT22;12504;52.870;8.798;2022-12-07T15:03:32;3.30;99.90
24384;DHT22;12504;52.870;8.798;2022-12-07T15:06:00;3.40;99.90
24384;DHT22;12504;52.870;8.798;2022-12-07T15:08:26;3.40;99.90
24384;DHT22;12504;52.870;8.798;2022-12-07T15:10:52;3.40;99.90
24384;DHT22;12504;52.870;8.798;2022-12-07T15:13:18;3.40;99.90
24384;DHT22;12504;52.870;8.798;2022-12-07T15:16:02;3.40;99.90
24384;DHT22;12504;52.870;8.798;2022-12-07T15:18:28;3.30;99.90
24384;DHT22;12504;52.870;8.798;2022-12-07T15:20:53;3.30;99.90
24384;DHT22;12504;52.870;8.798;2022-12-07T15:23:19;3.30;99.90
24384;DHT22;12504;52.870;8.798;2022-12-07T15:25:47;3.20;99.90
24384;DHT22;12504;52.870;8.798;2022-12-07T15:28:13;2.50;99.90
24384;DHT22;12504;52.870;8.798;2022-12-07T15:30:41;2.50;99.90
24384;DHT22;12504;52.870;8.798;2022-12-07T15:33:08;2.00;99.90
24384;DHT22;12504;52.870;8.798;2022-12-07T15:35:44;1.80;99.90
24384;DHT22;12504;52.870;8.798;2022-12-07T15:38:10;1.50;99.90
24384;DHT22;12504;52.870;8.798;2022-12-07T15:40:36;1.40;99.90
24384;DHT22;12504;52.870;8.798;2022-12-07T15:43:03;1.40;99.90
24384;DHT22;12504;52.870;8.798;2022-12-07T15:45:29;1.30;99.90
24384;DHT22;12504;52.870;8.798;2022-12-07T15:47:55;1.40;99.90
24384;DHT22;12504;52.870;8.798;2022-12-07T15:50:21;1.40;99.90
24384;DHT22;12504;52.870;8.798;2022-12-07T15:52:47;1.50;99.90
24384;DHT22;12504;52.870;8.798;2022-12-07T15:55:13;1.50;99.90
24384;DHT22;12504;52.870;8.798;2022-12-07T15:57:39;1.60;99.90
24384;DHT22;12504;52.870;8.798;2022-12-07T16:00:06;1.60;99.90
24384;DHT22;12504;52.870;8.798;2022-12-07T16:02:34;1.60;99.90
24384;DHT22;12504;52.870;8.798;2022-12-07T16:05:01;1.60;99.90
24384;DHT22;12504;52.870;8.798;2022-12-07T16:07:27;1.60;99.90
24384;DHT22;12504;52.870;8.798;2022-12-07T16:09:53;1.60;99.90
24384;DHT22;12504;52.870;8.798;2022-12-07T16:12:18;1.60;99.90
24384;DHT22;12504;52.870;8.798;2022-12-07T16:14:44;1.60;99.90
24384;DHT22;12504;52.870;8.798;2022-12-07T16:17:10;1.60;99.90
24384;DHT22;12504;52.870;8.798;2022-12-07T16:19:37;1.60;99.90
24384;DHT22;12504;52.870;8.798;2022-12-07T16:22:03;1.70;99.90
24384;DHT22;12504;52.870;8.798;2022-12-07T16:24:30;1.70;99.90
24384;DHT22;12504;52.870;8.798;2022-12-07T16:26:56;1.70;99.90
24384;DHT22;12504;52.870;8.798;2022-12-07T16:29:22;1.70;99.90
24384;DHT22;12504;52.870;8.798;2022-12-07T16:31:49;1.70;99.90
24384;DHT22;12504;52.870;8.798;2022-12-07T16:34:15;1.60;99.90
24384;DHT22;12504;52.870;8.798;2022-12-07T16:36:40;1.70;99.90
24384;DHT22;12504;52.870;8.798;2022-12-07T16:39:06;1.70;99.90
24384;DHT22;12504;52.870;8.798;2022-12-07T16:41:32;1.70;99.90
24384;DHT22;12504;52.870;8.798;2022-12-07T16:44:04;1.80;99.90
24384;DHT22;12504;52.870;8.798;2022-12-07T16:46:32;1.80;99.90
24384;DHT22;12504;52.870;8.798;2022-12-07T16:48:58;1.80;99.90
24384;DHT22;12504;52.870;8.798;2022-12-07T16:51:24;1.80;99.90
24384;DHT22;12504;52.870;8.798;2022-12-07T16:53:52;1.80;99.90
24384;DHT22;12504;52.870;8.798;2022-12-07T16:56:18;1.90;99.90
24384;DHT22;12504;52.870;8.798;2022-12-07T16:58:44;1.90;99.90
24384;DHT22;12504;52.870;8.798;2022-12-07T17:01:16;2.00;99.90
24384;DHT22;12504;52.870;8.798;2022-12-07T17:03:42;2.00;99.90
24384;DHT22;12504;52.870;8.798;2022-12-07T17:06:20;1.90;99.90
24384;DHT22;12504;52.870;8.798;2022-12-07T17:08:46;2.10;99.90
24384;DHT22;12504;52.870;8.798;2022-12-07T17:11:27;2.10;99.90
24384;DHT22;12504;52.870;8.798;2022-12-07T17:13:52;2.20;99.90
24384;DHT22;12504;52.870;8.798;2022-12-07T17:16:37;2.30;99.90
24384;DHT22;12504;52.870;8.798;2022-12-07T17:19:07;2.30;99.90
24384;DHT22;12504;52.870;8.798;2022-12-07T17:21:34;2.30;99.90
24384;DHT22;12504;52.870;8.798;2022-12-07T17:24:00;2.40;99.90
24384;DHT22;12504;52.870;8.798;2022-12-07T17:26:27;2.50;99.90
24384;DHT22;12504;52.870;8.798;2022-12-07T17:28:53;2.50;99.90
24384;DHT22;12504;52.870;8.798;2022-12-07T17:31:21;2.50;99.90
24384;DHT22;12504;52.870;8.798;2022-12-07T17:33:47;2.50;99.90
24384;DHT22;12504;52.870;8.798;2022-12-07T17:36:27;2.50;99.90
24384;DHT22;12504;52.870;8.798;2022-12-07T17:38:54;2.50;99.90
24384;DHT22;12504;52.870;8.798;2022-12-07T17:41:22;2.50;99.90
24384;DHT22;12504;52.870;8.798;2022-12-07T17:44:12;2.50;99.90
24384;DHT22;12504;52.870;8.798;2022-12-07T17:46:38;2.40;99.90
24384;DHT22;12504;52.870;8.798;2022-12-07T17:49:06;2.40;99.90